createdAt,value
2022-12-19T00:01:31.089Z,-4.15
2022-12-19T00:03:58.211Z,-4.07
2022-12-19T00:06:24.654Z,-4.11
2022-12-19T00:08:51.189Z,-4.09
2022-12-19T00:11:17.587Z,-4.19
2022-12-19T00:13:43.980Z,-4.13
2022-12-19T00:16:13.877Z,-4.14
2022-12-19T00:18:40.429Z,-4.14
2022-12-19T00:21:06.624Z,-4.11
2022-12-19T00:23:33.177Z,-4.16
2022-12-19T00:26:08.572Z,-4.16
2022-12-19T00:28:34.778Z,-4.15
2022-12-19T00:31:01.413Z,-4.20
2022-12-19T00:33:27.616Z,-4.09
2022-12-19T00:35:57.545Z,-4.10
2022-12-19T00:38:23.756Z,-4.00
2022-12-19T00:40:49.951Z,-4.02
2022-12-19T00:43:16.156Z,-4.11
2022-12-19T00:45:42.413Z,-4.16
2022-12-19T00:48:08.656Z,-4.05
2022-12-19T00:50:36.632Z,-3.97
2022-12-19T00:53:02.835Z,-3.98
2022-12-19T00:55:29.032Z,-3.96
2022-12-19T00:57:55.259Z,-3.99
2022-12-19T01:00:24.423Z,-4.02
2022-12-19T01:02:50.708Z,-4.02
2022-12-19T01:05:16.946Z,-3.94
2022-12-19T01:07:43.174Z,-3.90
2022-12-19T01:10:09.515Z,-3.95
2022-12-19T01:12:35.964Z,-3.92
2022-12-19T01:15:04.957Z,-3.93
2022-12-19T01:17:31.488Z,-3.97
2022-12-19T01:19:57.684Z,-3.96
2022-12-19T01:22:23.894Z,-3.92
2022-12-19T01:24:50.099Z,-3.90
2022-12-19T01:27:16.301Z,-3.83
2022-12-19T01:29:52.542Z,-3.87
2022-12-19T01:32:19.212Z,-3.91
2022-12-19T01:34:45.407Z,-3.96
2022-12-19T01:37:11.600Z,-3.96
2022-12-19T01:39:37.807Z,-3.93
2022-12-19T01:42:10.228Z,-3.87
2022-12-19T01:44:36.437Z,-3.85
2022-12-19T01:47:02.641Z,-3.82
2022-12-19T01:49:33.358Z,-3.94
2022-12-19T01:52:00.116Z,-3.84
2022-12-19T01:54:27.131Z,-3.89
2022-12-19T01:56:53.595Z,-3.89
2022-12-19T01:59:20.588Z,-3.83
2022-12-19T02:01:51.617Z,-3.86
2022-12-19T02:04:18.370Z,-3.97
2022-12-19T02:06:44.583Z,-3.90
2022-12-19T02:09:11.064Z,-3.87
2022-12-19T02:11:37.253Z,-3.93
2022-12-19T02:14:03.481Z,-3.94
2022-12-19T02:16:34.000Z,-3.92
2022-12-19T02:19:04.302Z,-3.82
2022-12-19T02:21:35.675Z,-3.82
2022-12-19T02:24:11.078Z,-3.75
2022-12-19T02:26:49.347Z,-3.78
2022-12-19T02:29:33.642Z,-3.76
2022-12-19T02:32:16.153Z,-3.78
2022-12-19T02:34:49.550Z,-3.76
2022-12-19T02:37:20.903Z,-3.74
2022-12-19T02:39:58.931Z,-3.75
2022-12-19T02:42:26.601Z,-3.73
2022-12-19T02:44:55.026Z,-3.73
2022-12-19T02:47:21.253Z,-3.67
2022-12-19T02:49:47.452Z,-3.74
2022-12-19T02:52:19.733Z,-3.69
2022-12-19T02:54:46.337Z,-3.71
2022-12-19T02:57:12.486Z,-3.73
2022-12-19T02:59:38.647Z,-3.75
2022-12-19T03:02:08.020Z,-3.67
2022-12-19T03:04:56.398Z,-3.73
2022-12-19T03:07:42.546Z,-3.78
2022-12-19T03:10:29.806Z,-3.83
2022-12-19T03:13:00.843Z,-3.78
2022-12-19T03:15:27.067Z,-3.88
2022-12-19T03:17:56.072Z,-3.88
2022-12-19T03:20:23.938Z,-3.88
2022-12-19T03:22:50.142Z,-3.82
2022-12-19T03:25:16.357Z,-3.81
2022-12-19T03:27:42.563Z,-3.82
2022-12-19T03:30:10.132Z,-3.81
2022-12-19T03:32:36.460Z,-3.77
2022-12-19T03:35:06.388Z,-3.85
2022-12-19T03:37:34.530Z,-3.83
2022-12-19T03:40:01.175Z,-3.80
2022-12-19T03:42:27.573Z,-3.79
2022-12-19T03:44:53.777Z,-3.83
2022-12-19T03:47:24.169Z,-3.79
2022-12-19T03:49:50.944Z,-3.72
2022-12-19T03:52:21.758Z,-3.66
2022-12-19T03:55:01.044Z,-3.65
2022-12-19T03:57:34.728Z,-3.60
2022-12-19T04:00:02.378Z,-3.53
2022-12-19T04:02:28.713Z,-3.55
2022-12-19T04:05:02.223Z,-3.52
2022-12-19T04:07:28.431Z,-3.56
2022-12-19T04:09:54.653Z,-3.52
2022-12-19T04:12:26.094Z,-3.44
2022-12-19T04:14:52.295Z,-3.47
2022-12-19T04:17:26.907Z,-3.41
2022-12-19T04:19:53.076Z,-3.42
2022-12-19T04:22:23.494Z,-3.41
2022-12-19T04:24:49.697Z,-3.41
2022-12-19T04:27:15.897Z,-3.39
2022-12-19T04:29:42.095Z,-3.28
2022-12-19T04:32:08.324Z,-3.30
2022-12-19T04:34:36.856Z,-3.26
2022-12-19T04:37:06.375Z,-3.30
2022-12-19T04:39:32.769Z,-3.26
2022-12-19T04:41:59.001Z,-3.18
2022-12-19T04:44:25.209Z,-3.22
2022-12-19T04:46:51.432Z,-3.20
2022-12-19T04:49:17.695Z,-3.15
2022-12-19T04:51:43.898Z,-3.19
2022-12-19T04:54:10.093Z,-3.26
2022-12-19T04:56:36.292Z,-3.26
2022-12-19T04:59:02.505Z,-3.14
2022-12-19T05:01:28.808Z,-3.07
2022-12-19T05:03:58.663Z,-3.19
2022-12-19T05:06:27.558Z,-3.17
2022-12-19T05:08:53.771Z,-3.14
2022-12-19T05:11:20.187Z,-3.09
2022-12-19T05:13:46.448Z,-3.11
2022-12-19T05:16:12.784Z,-3.14
2022-12-19T05:18:39.057Z,-3.11
2022-12-19T05:21:05.532Z,-3.10
2022-12-19T05:23:31.758Z,-3.06
2022-12-19T05:25:58.180Z,-3.04
2022-12-19T05:28:24.390Z,-2.97
2022-12-19T05:30:52.460Z,-2.99
2022-12-19T05:33:18.926Z,-2.99
2022-12-19T05:35:45.125Z,-2.95
2022-12-19T05:38:11.333Z,-2.88
2022-12-19T05:40:37.544Z,-2.83
2022-12-19T05:43:04.096Z,-2.81
2022-12-19T05:45:30.320Z,-2.79
2022-12-19T05:48:01.093Z,-2.74
2022-12-19T05:50:27.612Z,-2.81
2022-12-19T05:52:53.816Z,-2.76
2022-12-19T05:55:20.257Z,-2.79
2022-12-19T05:57:46.477Z,-2.78
2022-12-19T06:00:12.951Z,-2.77
2022-12-19T06:02:39.222Z,-2.73
2022-12-19T06:05:05.666Z,-2.76
2022-12-19T06:07:31.882Z,-2.76
2022-12-19T06:09:58.073Z,-2.74
2022-12-19T06:12:24.294Z,-2.69
2022-12-19T06:14:50.490Z,-2.68
2022-12-19T06:17:16.712Z,-2.65
2022-12-19T06:19:43.194Z,-2.60
2022-12-19T06:22:09.407Z,-2.53
2022-12-19T06:24:35.615Z,-2.60
2022-12-19T06:27:01.848Z,-2.60
2022-12-19T06:29:28.063Z,-2.60
2022-12-19T06:31:54.304Z,-2.58
2022-12-19T06:34:39.873Z,-2.52
2022-12-19T06:37:08.473Z,-2.52
2022-12-19T06:39:34.847Z,-2.52
2022-12-19T06:42:01.045Z,-2.46
2022-12-19T06:44:27.258Z,-2.43
2022-12-19T06:46:53.453Z,-2.44
2022-12-19T06:49:19.670Z,-2.44
2022-12-19T06:51:46.016Z,-2.43
2022-12-19T06:54:13.064Z,-2.41
2022-12-19T06:56:39.754Z,-2.42
2022-12-19T06:59:06.049Z,-2.41
2022-12-19T07:01:38.976Z,-2.46
2022-12-19T07:04:05.249Z,-2.37
2022-12-19T07:06:31.470Z,-2.40
2022-12-19T07:08:57.679Z,-2.38
2022-12-19T07:11:23.879Z,-2.37
2022-12-19T07:13:50.143Z,-2.34
2022-12-19T07:16:16.408Z,-2.27
2022-12-19T07:18:42.661Z,-2.30
2022-12-19T07:21:08.854Z,-2.29
2022-12-19T07:23:35.064Z,-2.26
2022-12-19T07:26:01.281Z,-2.27
2022-12-19T07:28:27.519Z,-2.29
2022-12-19T07:30:53.726Z,-2.27
2022-12-19T07:33:21.932Z,-2.28
2022-12-19T07:35:48.450Z,-2.17
2022-12-19T07:38:14.681Z,-2.21
2022-12-19T07:40:40.891Z,-2.10
2022-12-19T07:43:07.107Z,-2.12
2022-12-19T07:45:33.376Z,-2.08
2022-12-19T07:48:00.061Z,-2.06
2022-12-19T07:50:26.284Z,-2.12
2022-12-19T07:52:52.488Z,-2.04
2022-12-19T07:55:18.709Z,-2.03
2022-12-19T07:57:44.901Z,-1.92
2022-12-19T08:00:11.232Z,-1.89
2022-12-19T08:02:37.531Z,-1.90
2022-12-19T08:05:04.077Z,-1.92
2022-12-19T08:07:30.278Z,-1.83
2022-12-19T08:09:56.492Z,-1.81
2022-12-19T08:12:22.704Z,-1.77
2022-12-19T08:14:51.584Z,-1.75
2022-12-19T08:17:21.373Z,-1.71
2022-12-19T08:19:47.899Z,-1.62
2022-12-19T08:22:14.089Z,-1.64
2022-12-19T08:24:40.319Z,-1.63
2022-12-19T08:27:06.532Z,-1.59
2022-12-19T08:29:32.737Z,-1.58
2022-12-19T08:31:58.940Z,-1.48
2022-12-19T08:34:25.161Z,-1.50
2022-12-19T08:36:51.359Z,-1.51
2022-12-19T08:39:17.561Z,-1.42
2022-12-19T08:41:43.768Z,-1.35
2022-12-19T08:44:10.563Z,-1.39
2022-12-19T08:46:36.819Z,-1.37
2022-12-19T08:49:03.062Z,-1.31
2022-12-19T08:51:29.269Z,-1.29
2022-12-19T08:53:55.493Z,-1.21
2022-12-19T08:56:21.810Z,-1.20
2022-12-19T08:58:48.043Z,-1.19
2022-12-19T09:01:15.023Z,-1.12
2022-12-19T09:04:06.566Z,-1.12
2022-12-19T09:06:27.512Z,-1.07
2022-12-19T09:08:53.768Z,-0.92
2022-12-19T09:11:26.589Z,-0.93
2022-12-19T09:13:52.800Z,-0.84
2022-12-19T09:16:20.036Z,-0.82
2022-12-19T09:18:48.761Z,-0.67
2022-12-19T09:21:15.314Z,-0.62
2022-12-19T09:23:41.595Z,-0.57
2022-12-19T09:26:10.156Z,-0.54
2022-12-19T09:28:36.622Z,-0.54
2022-12-19T09:31:03.702Z,-0.55
2022-12-19T09:33:30.641Z,-0.41
2022-12-19T09:35:56.931Z,-0.47
2022-12-19T09:38:23.344Z,-0.41
2022-12-19T09:40:55.593Z,-0.43
2022-12-19T09:43:26.700Z,-0.35
2022-12-19T09:45:56.404Z,-0.31
2022-12-19T09:48:24.732Z,-0.28
2022-12-19T09:50:53.820Z,-0.25
2022-12-19T09:53:43.136Z,-0.33
2022-12-19T09:56:10.915Z,-0.27
2022-12-19T09:58:44.936Z,-0.09
2022-12-19T10:01:21.148Z,-0.15
2022-12-19T10:03:49.850Z,-0.04
2022-12-19T10:07:16.109Z,-0.08
2022-12-19T10:09:57.746Z,-0.03
2022-12-19T10:12:41.314Z,0.08
2022-12-19T10:14:38.595Z,0.15
2022-12-19T10:17:28.350Z,0.19
2022-12-19T10:20:13.651Z,0.33
2022-12-19T10:22:48.866Z,0.29
2022-12-19T10:25:15.023Z,0.35
2022-12-19T10:27:58.579Z,0.39
2022-12-19T10:30:26.529Z,0.49
2022-12-19T10:32:57.414Z,0.48
2022-12-19T10:35:23.650Z,0.42
2022-12-19T10:38:08.833Z,0.44
2022-12-19T10:40:45.524Z,0.52
2022-12-19T10:43:16.360Z,0.53
2022-12-19T10:45:50.095Z,0.45
2022-12-19T10:48:17.355Z,0.48
2022-12-19T10:50:44.680Z,0.39
2022-12-19T10:53:11.230Z,0.57
2022-12-19T10:55:45.177Z,0.53
2022-12-19T10:58:18.826Z,0.62
2022-12-19T11:00:54.317Z,0.73
2022-12-19T11:03:20.668Z,0.73
2022-12-19T11:05:52.649Z,0.79
2022-12-19T11:08:31.427Z,0.85
2022-12-19T11:11:57.592Z,0.93
2022-12-19T11:19:55.546Z,0.97
2022-12-19T11:22:04.962Z,0.98
2022-12-19T11:29:25.268Z,0.98
2022-12-19T11:29:32.463Z,1.05
2022-12-19T11:29:36.674Z,1.24
2022-12-19T11:29:41.073Z,1.13
2022-12-19T11:32:14.040Z,1.30
2022-12-19T11:33:44.751Z,1.36
2022-12-19T11:36:11.039Z,1.38
2022-12-19T11:38:37.284Z,1.42
2022-12-19T11:41:11.798Z,1.48
2022-12-19T11:43:44.297Z,1.50
2022-12-19T11:46:22.210Z,1.56
2022-12-19T11:49:14.925Z,1.52
2022-12-19T11:51:48.253Z,1.52
2022-12-19T11:54:19.470Z,1.50
2022-12-19T11:56:45.684Z,1.45
2022-12-19T11:59:24.886Z,1.60
2022-12-19T12:01:54.747Z,1.58
2022-12-19T12:04:47.379Z,1.61
2022-12-19T12:07:59.093Z,1.52
2022-12-19T12:14:06.264Z,1.51
2022-12-19T12:17:55.100Z,1.50
2022-12-19T12:27:19.791Z,1.50
2022-12-19T12:31:01.541Z,1.55
2022-12-19T12:31:07.828Z,1.52
2022-12-19T12:31:44.953Z,1.58
2022-12-19T12:31:46.046Z,1.54
2022-12-19T12:35:35.104Z,1.61
2022-12-19T12:35:48.611Z,1.61
2022-12-19T12:40:23.752Z,1.64
2022-12-19T12:42:53.817Z,1.72
2022-12-19T12:45:22.598Z,1.73
2022-12-19T12:47:49.568Z,1.65
2022-12-19T12:50:16.415Z,1.66
2022-12-19T12:52:43.758Z,1.61
2022-12-19T12:55:28.956Z,1.72
2022-12-19T12:57:55.263Z,1.73
2022-12-19T13:00:24.957Z,1.71
2022-12-19T13:03:05.614Z,1.74
2022-12-19T13:05:32.111Z,1.69
2022-12-19T13:07:58.644Z,1.75
2022-12-19T13:10:28.751Z,1.78
2022-12-19T13:12:56.991Z,1.69
2022-12-19T13:15:34.166Z,1.60
2022-12-19T13:18:31.063Z,1.68
2022-12-19T13:20:57.477Z,1.77
2022-12-19T13:23:29.874Z,1.75
2022-12-19T13:25:58.685Z,1.71
2022-12-19T13:28:32.395Z,1.76
2022-12-19T13:31:19.481Z,1.80
2022-12-19T13:33:55.900Z,1.79
2022-12-19T13:39:50.342Z,1.73
2022-12-19T13:39:56.270Z,1.83
2022-12-19T13:42:21.227Z,1.78
2022-12-19T13:44:47.475Z,1.74
2022-12-19T13:47:16.561Z,1.76
2022-12-19T13:49:45.198Z,1.78
2022-12-19T13:52:11.512Z,1.77
2022-12-19T13:54:44.779Z,1.87
2022-12-19T13:57:20.777Z,1.86
2022-12-19T13:59:59.556Z,1.82
2022-12-19T14:02:28.650Z,1.81
2022-12-19T14:04:55.202Z,1.88
2022-12-19T14:07:34.810Z,1.88
2022-12-19T14:11:26.292Z,1.91
2022-12-19T14:13:55.925Z,1.91
2022-12-19T14:15:37.166Z,1.83
2022-12-19T14:18:44.799Z,1.89
2022-12-19T14:22:05.444Z,1.91
2022-12-19T14:24:08.188Z,1.94
2022-12-19T14:28:19.924Z,1.98
2022-12-19T14:29:55.889Z,1.95
2022-12-19T14:33:53.577Z,2.00
2022-12-19T14:36:06.707Z,1.98
2022-12-19T14:39:25.665Z,1.96
2022-12-19T14:40:34.381Z,1.99
2022-12-19T14:43:59.738Z,2.01
2022-12-19T14:53:17.578Z,1.98
2022-12-19T14:54:15.865Z,1.95
2022-12-19T14:54:32.220Z,2.02
2022-12-19T14:56:11.570Z,2.03
2022-12-19T14:57:16.043Z,2.06
2022-12-19T15:00:02.410Z,2.09
2022-12-19T15:02:33.037Z,2.02
2022-12-19T15:05:01.834Z,2.03
2022-12-19T15:07:28.604Z,2.01
2022-12-19T15:11:00.907Z,2.03
2022-12-19T15:14:49.362Z,2.02
2022-12-19T15:15:37.466Z,2.15
2022-12-19T15:18:03.849Z,2.19
2022-12-19T15:20:30.142Z,2.12
2022-12-19T15:22:56.354Z,2.09
2022-12-19T15:25:44.076Z,2.11
2022-12-19T15:28:13.004Z,2.16
2022-12-19T15:30:39.230Z,2.14
2022-12-19T15:33:08.863Z,2.15
2022-12-19T15:35:35.083Z,2.21
2022-12-19T15:38:01.287Z,2.22
2022-12-19T15:40:29.203Z,2.20
2022-12-19T15:42:55.706Z,2.25
2022-12-19T15:45:21.922Z,2.20
2022-12-19T15:47:48.125Z,2.29
2022-12-19T15:50:15.750Z,2.30
2022-12-19T15:52:41.964Z,2.27
2022-12-19T15:55:11.877Z,2.30
2022-12-19T15:57:39.410Z,2.35
2022-12-19T16:00:32.037Z,2.29
2022-12-19T16:03:23.513Z,2.33
2022-12-19T16:05:44.499Z,2.34
2022-12-19T16:08:15.195Z,2.38
2022-12-19T16:10:41.737Z,2.46
2022-12-19T16:13:15.352Z,2.45
2022-12-19T16:15:41.675Z,2.38
2022-12-19T16:18:09.817Z,2.48
2022-12-19T16:20:36.077Z,2.42
2022-12-19T16:23:02.325Z,2.51
2022-12-19T16:25:33.395Z,2.41
2022-12-19T16:27:59.606Z,2.46
2022-12-19T16:30:27.981Z,2.50
2022-12-19T16:32:54.243Z,2.43
2022-12-19T16:35:40.239Z,2.41
2022-12-19T16:38:08.101Z,2.46
2022-12-19T16:40:34.308Z,2.57
2022-12-19T16:43:04.628Z,2.56
2022-12-19T16:45:30.832Z,2.64
2022-12-19T16:47:57.040Z,2.63
2022-12-19T16:50:24.189Z,2.60
2022-12-19T16:52:51.220Z,2.63
2022-12-19T16:55:17.420Z,2.63
2022-12-19T16:57:44.345Z,2.73
2022-12-19T17:00:14.587Z,2.67
2022-12-19T17:02:45.166Z,2.62
2022-12-19T17:05:15.371Z,2.56
2022-12-19T17:07:41.587Z,2.53
2022-12-19T17:10:07.982Z,2.60
2022-12-19T17:12:34.191Z,2.57
2022-12-19T17:15:00.444Z,2.60
2022-12-19T17:17:26.661Z,2.60
2022-12-19T17:19:52.894Z,2.63
2022-12-19T17:22:19.199Z,2.69
2022-12-19T17:24:45.508Z,2.78
2022-12-19T17:27:11.922Z,2.74
2022-12-19T17:29:40.440Z,2.69
2022-12-19T17:32:06.728Z,2.69
2022-12-19T17:34:33.033Z,2.76
2022-12-19T17:36:59.536Z,2.75
2022-12-19T17:39:26.534Z,2.78
2022-12-19T17:41:52.748Z,2.77
2022-12-19T17:44:18.973Z,2.85
2022-12-19T17:46:45.259Z,2.76
2022-12-19T17:49:15.756Z,2.85
2022-12-19T17:51:42.302Z,2.93
2022-12-19T17:54:11.499Z,2.95
2022-12-19T17:56:37.693Z,2.99
2022-12-19T17:59:03.902Z,2.97
2022-12-19T18:01:30.274Z,3.07
2022-12-19T18:03:56.593Z,3.00
2022-12-19T18:06:22.834Z,3.05
2022-12-19T18:08:49.102Z,3.08
2022-12-19T18:11:16.854Z,3.01
2022-12-19T18:13:43.077Z,3.04
2022-12-19T18:16:09.487Z,3.03
2022-12-19T18:18:35.735Z,3.09
2022-12-19T18:21:01.962Z,3.10
2022-12-19T18:23:28.200Z,3.12
2022-12-19T18:26:00.843Z,3.08
2022-12-19T18:28:27.618Z,3.15
2022-12-19T18:30:53.842Z,3.32
2022-12-19T18:33:20.813Z,3.25
2022-12-19T18:35:47.164Z,3.26
2022-12-19T18:38:17.162Z,3.35
2022-12-19T18:40:43.405Z,3.23
2022-12-19T18:43:11.709Z,3.27
2022-12-19T18:45:39.098Z,3.22
2022-12-19T18:48:24.096Z,3.22
2022-12-19T18:50:50.326Z,3.17
2022-12-19T18:53:17.604Z,3.14
2022-12-19T18:55:43.818Z,3.18
2022-12-19T18:58:10.036Z,3.22
2022-12-19T19:00:36.600Z,3.39
2022-12-19T19:03:03.356Z,3.27
2022-12-19T19:05:30.855Z,3.49
2022-12-19T19:07:57.238Z,3.34
2022-12-19T19:10:27.219Z,3.35
2022-12-19T19:12:53.789Z,3.38
2022-12-19T19:15:20.266Z,3.33
2022-12-19T19:17:47.293Z,3.44
2022-12-19T19:20:13.515Z,3.63
2022-12-19T19:22:39.722Z,3.59
2022-12-19T19:25:06.004Z,3.61
2022-12-19T19:27:32.219Z,3.53
2022-12-19T19:29:58.446Z,3.47
2022-12-19T19:32:24.671Z,3.43
2022-12-19T19:34:50.870Z,3.41
2022-12-19T19:37:17.073Z,3.35
2022-12-19T19:39:43.291Z,3.54
2022-12-19T19:42:09.647Z,3.46
2022-12-19T19:44:35.898Z,3.45
2022-12-19T19:47:02.120Z,3.37
2022-12-19T19:49:28.347Z,3.48
2022-12-19T19:52:00.512Z,3.63
2022-12-19T19:54:28.600Z,3.70
2022-12-19T19:56:54.818Z,3.64
2022-12-19T19:59:21.019Z,3.61
2022-12-19T20:01:47.366Z,3.64
2022-12-19T20:04:13.885Z,3.71
2022-12-19T20:06:40.190Z,3.69
2022-12-19T20:09:06.398Z,3.70
2022-12-19T20:11:32.623Z,3.62
2022-12-19T20:13:58.817Z,3.65
2022-12-19T20:16:25.119Z,3.67
2022-12-19T20:18:51.814Z,3.70
2022-12-19T20:21:18.086Z,3.68
2022-12-19T20:23:44.297Z,3.86
2022-12-19T20:26:11.049Z,3.99
2022-12-19T20:28:41.023Z,4.08
2022-12-19T20:31:12.074Z,4.01
2022-12-19T20:33:38.319Z,4.10
2022-12-19T20:36:05.131Z,4.09
2022-12-19T20:38:31.340Z,4.06
2022-12-19T20:40:58.236Z,3.98
2022-12-19T20:43:27.522Z,4.06
2022-12-19T20:45:59.983Z,4.09
2022-12-19T20:48:26.325Z,4.09
2022-12-19T20:50:56.369Z,4.16
2022-12-19T20:53:22.575Z,4.19
2022-12-19T20:55:59.179Z,4.17
2022-12-19T20:58:25.804Z,4.25
2022-12-19T21:00:55.271Z,4.19
2022-12-19T21:03:30.174Z,4.17
2022-12-19T21:05:56.904Z,4.16
2022-12-19T21:08:23.294Z,4.17
2022-12-19T21:10:49.532Z,4.30
2022-12-19T21:13:15.784Z,4.23
2022-12-19T21:15:42.013Z,4.25
2022-12-19T21:18:09.234Z,4.19
2022-12-19T21:20:36.087Z,4.14
2022-12-19T21:23:02.523Z,4.11
2022-12-19T21:25:28.749Z,4.12
2022-12-19T21:27:55.011Z,4.39
2022-12-19T21:30:21.229Z,4.42
2022-12-19T21:32:47.445Z,4.26
2022-12-19T21:35:13.642Z,4.41
2022-12-19T21:37:43.530Z,4.35
2022-12-19T21:40:10.259Z,4.26
2022-12-19T21:42:36.473Z,4.24
2022-12-19T21:45:02.694Z,4.35
2022-12-19T21:47:28.923Z,4.43
2022-12-19T21:49:55.125Z,4.37
2022-12-19T21:52:21.357Z,4.28
2022-12-19T21:54:47.576Z,4.31
2022-12-19T21:57:13.785Z,4.29
2022-12-19T21:59:39.978Z,4.27
2022-12-19T22:02:06.354Z,4.26
2022-12-19T22:04:32.682Z,4.39
2022-12-19T22:06:58.892Z,4.33
2022-12-19T22:09:25.123Z,4.19
2022-12-19T22:11:51.341Z,4.34
2022-12-19T22:14:17.721Z,4.29
2022-12-19T22:16:44.169Z,4.37
2022-12-19T22:19:10.538Z,4.63
2022-12-19T22:21:36.743Z,4.56
2022-12-19T22:24:03.942Z,4.59
2022-12-19T22:26:30.350Z,4.51
2022-12-19T22:28:56.687Z,4.46
2022-12-19T22:31:23.628Z,4.46
2022-12-19T22:33:50.459Z,4.43
2022-12-19T22:36:20.997Z,4.40
2022-12-19T22:38:50.334Z,4.41
2022-12-19T22:41:16.842Z,4.29
2022-12-19T22:43:43.048Z,4.19
2022-12-19T22:46:10.210Z,4.21
2022-12-19T22:48:36.477Z,4.19
2022-12-19T22:51:02.682Z,4.14
2022-12-19T22:53:28.894Z,4.06
2022-12-19T22:55:55.098Z,4.02
2022-12-19T22:58:21.308Z,4.10
2022-12-19T23:00:47.547Z,4.07
2022-12-19T23:03:13.974Z,4.08
2022-12-19T23:05:40.411Z,4.06
2022-12-19T23:08:06.625Z,4.27
2022-12-19T23:10:32.823Z,4.17
2022-12-19T23:12:59.027Z,4.30
2022-12-19T23:15:25.237Z,4.16
2022-12-19T23:17:51.463Z,4.15
2022-12-19T23:20:17.698Z,4.18
2022-12-19T23:22:43.917Z,4.29
2022-12-19T23:25:10.216Z,4.19
2022-12-19T23:27:36.428Z,4.21
2022-12-19T23:30:02.625Z,4.26
2022-12-19T23:32:28.837Z,4.31
2022-12-19T23:34:55.025Z,4.43
2022-12-19T23:37:21.243Z,4.28
2022-12-19T23:39:47.449Z,4.32
2022-12-19T23:42:13.711Z,4.24
2022-12-19T23:44:40.099Z,4.07
2022-12-19T23:47:06.328Z,4.30
2022-12-19T23:49:32.896Z,4.23
2022-12-19T23:51:59.118Z,4.36
2022-12-19T23:54:25.328Z,4.34
2022-12-19T23:56:51.525Z,4.22
2022-12-19T23:59:18.073Z,4.36
